CZ-0028 weather

Teaching Thomayer Hospital Heliport
Prague, Prague (capital city), Czechia

Public forecast

Using degrees Celsius for public forecast. Weather courtesy of forecast.io.

Closest aviation weather report (METAR) to Teaching Thomayer Hospital Heliport

Closest report is Kbely Air Base, 6.3 nm (11.7 km) NNE. Retrieved 2019/10/22 12:15 UTC (4 minutes ago):

LKKB 221215Z VRB01KT 3000 OVC002 12/12 Q1024 RMK AMB

Closest aviation forecast (TAF) to Teaching Thomayer Hospital Heliport

Closest forecast is Kbely Air Base, 6.3 nm (11.7 km) NNE. Retrieved 2019/10/22 12:00 UTC (19 minutes ago):

TAF COR LKKB 221100Z 2212/2312 VRB02KT 3000 BR BKN002 TEMPO 2213/2216 4000 SCT007 BECMG 2216/2218 2000 BR TEMPO 2218/2310 0300 FG VV001